Myrtle Point, OR

9:58 PM PST on December 21, 2014 (GMT -0800)
Arago | Change Station
CLOSE
Current Station
Personal Weather Station
Location: Myrtle Point, OR
Elevation: 175 ft
Nearby Weather Stations

Elev 175 ft 43.09 °N, 124.20 °W | Updated 3 minutes ago

Overcast
Overcast
56.9 °F
Feels Like 56.9 °F
N
1.0
Wind Variable Wind from ENE
Gusts 2.0 mph

Today
High -- | Low -- °F
--% Chance of Precip.
Yesterday
High -- | Low -- °F
Precip. -- in
7:45 AM 4:44 PM
New Moon, 0% visible
Pressure 30.24 in
Visibility 2.0 miles
Clouds Overcast 400 ft
Dew Point 57 °F
Humidity 100%
Rainfall 1.79 in
Snow Depth Not available.
UV 0 out of 12
Pollen .60 out of 12
Air Quality Not available.
Flu Activity Not available.
METAR KOTH 220555Z 23011G18KT 2SM OVC004 14/13 A3024 RMK AO1 P0003 60015 10140 20130 52007

More Conditions Fewer Conditions

Pressure 30.24 in
Visibility 2.0 miles
Clouds Overcast 400 ft
Dew Point 57 °F
Humidity 100%
Rainfall 1.79 in
Snow Depth Not available.
UV 0 out of 12
Pollen .60 out of 12
Air Quality Not available.
Flu Activity Not available.
METAR KOTH 220555Z 23011G18KT 2SM OVC004 14/13 A3024 RMK AO1 P0003 60015 10140 20130 52007

More Conditions Fewer Conditions

10-Day Weather Forecast

Almanac

Astronomy

Dec. 21, 2014 Rise Set
Actual Time
Civil Twilight
Nautical Twilight
Astronomical Twilight
Moon
Length of Visible Light
Length of Day
Tomorrow will be .
, % of the Moon is Illuminated

Today's Extremes

State Highs State Lows

Community

WunderPhotos

Upload Photos

1,779,549 photos uploaded!

WunderBlogs® & News

Nearby

Air Quality

  Air Quality AQ Index Pollutant
Not available.

Snow Depth

Station Depth Elevation

Earthquake Activity

City Distance Mag. Time & Date
Minimum magnitude displayed is 2.5.

Coastal Water Temperatures

Place Temperature

Nearby Weather Stations